Time;durP1;ratioP1;P1;durP2;ratioP2;P2;SDS_P1;SDS_P2;PMS_P1;PMS_P2;Temp;Humidity;BMP_temperature;BMP_pressure;BME280_temperature;BME280_humidity;BME280_pressure;Samples;Min_cycle;Max_cycle;Signal;HPM_P1;HPM_P2
2023/07/26 00:01:05;;;;;;;13.25;9.45;;;;;;;19.47;100.00;98120.88;5067721;28;20035;-43
2023/07/26 00:03:31;;;;;;;16.40;9.27;;;;;;;19.25;100.00;98091.25;5069689;28;20062;-42
2023/07/26 00:05:58;;;;;;;16.80;9.88;;;;;;;19.42;100.00;98122.09;5069834;28;20056;-43
2023/07/26 00:08:24;;;;;;;16.75;10.38;;;;;;;19.41;100.00;98119.63;5070094;28;20828;-42
2023/07/26 00:10:50;;;;;;;14.65;9.73;;;;;;;19.38;100.00;98118.09;5069871;28;20534;-42
2023/07/26 00:13:16;;;;;;;16.92;10.20;;;;;;;19.36;100.00;98119.22;5070469;28;20045;-45
2023/07/26 00:15:42;;;;;;;14.07;9.95;;;;;;;19.33;100.00;98122.13;5068999;28;20508;-43
2023/07/26 00:18:08;;;;;;;15.35;10.18;;;;;;;19.31;100.00;98113.56;5069701;28;20105;-45
2023/07/26 00:20:34;;;;;;;12.88;9.90;;;;;;;19.30;100.00;98106.63;5069343;28;20060;-43
2023/07/26 00:23:00;;;;;;;14.25;10.38;;;;;;;19.28;100.00;98109.41;5069963;28;20058;-43
2023/07/26 00:25:26;;;;;;;15.57;9.38;;;;;;;19.28;100.00;98113.84;5070625;28;20566;-44
2023/07/26 00:27:52;;;;;;;12.48;9.75;;;;;;;19.16;100.00;98094.75;5057177;28;20548;-46
2023/07/26 00:30:18;;;;;;;12.23;9.65;;;;;;;19.27;100.00;98106.91;5061112;28;20150;-43
2023/07/26 00:32:43;;;;;;;14.32;10.65;;;;;;;19.24;100.00;98100.13;5053310;28;20568;-42
2023/07/26 00:35:19;;;;;;;17.08;11.63;;;;;;;19.25;100.00;98103.59;5064704;28;20676;-44
2023/07/26 00:37:47;;;;;;;17.50;11.10;;;;;;;19.23;100.00;98100.28;5057572;28;20423;-43
2023/07/26 00:40:13;;;;;;;13.25;10.05;;;;;;;19.20;100.00;98103.22;5062392;28;20076;-44
2023/07/26 00:42:39;;;;;;;13.98;10.43;;;;;;;18.96;100.00;98064.19;5063932;28;20048;-42
2023/07/26 00:45:05;;;;;;;13.32;10.75;;;;;;;19.02;100.00;98066.25;5060687;28;20147;-44
2023/07/26 00:47:31;;;;;;;18.85;11.13;;;;;;;19.22;100.00;98098.59;5069486;28;20143;-43
2023/07/26 00:49:57;;;;;;;14.13;10.48;;;;;;;19.18;100.00;98097.25;5052580;28;20129;-45
2023/07/26 00:52:25;;;;;;;15.00;10.80;;;;;;;19.07;100.00;98077.19;5050676;28;20048;-43
2023/07/26 00:54:55;;;;;;;14.80;11.05;;;;;;;19.04;100.00;98064.31;5053363;28;20037;-43
2023/07/26 00:57:21;;;;;;;14.77;10.93;;;;;;;19.22;100.00;98096.81;5068652;28;20121;-45
2023/07/26 00:59:47;;;;;;;16.50;10.98;;;;;;;19.11;100.00;98077.72;5030411;28;20044;-43
2023/07/26 01:02:13;;;;;;;16.45;11.23;;;;;;;19.15;100.00;98082.56;5061766;28;20040;-43
2023/07/26 01:04:39;;;;;;;14.98;11.07;;;;;;;19.11;100.00;98073.28;5053585;28;20294;-42
2023/07/26 01:07:14;;;;;;;15.15;11.07;;;;;;;19.22;100.00;98095.97;5064461;28;20159;-42
2023/07/26 01:09:41;;;;;;;16.98;11.82;;;;;;;19.22;100.00;98098.59;5085079;28;20558;-44
2023/07/26 01:12:16;;;;;;;17.33;11.15;;;;;;;19.19;100.00;98091.84;5084784;28;20098;-43
2023/07/26 01:15:12;;;;;;;16.23;11.48;;;;;;;19.18;100.00;98084.06;5048346;28;20068;-43
2023/07/26 01:17:38;;;;;;;18.23;11.68;;;;;;;19.16;100.00;98080.75;5044266;28;20145;-42
2023/07/26 01:20:05;;;;;;;17.33;11.50;;;;;;;18.97;100.00;98053.53;5048618;28;20073;-43
2023/07/26 01:22:31;;;;;;;19.77;12.75;;;;;;;19.12;100.00;98082.84;5067583;28;20044;-44
2023/07/26 01:24:57;;;;;;;18.02;12.32;;;;;;;19.10;100.00;98082.19;5069076;28;20037;-45
2023/07/26 01:27:24;;;;;;;16.33;11.50;;;;;;;18.88;100.00;98037.75;5050594;28;20044;-44
2023/07/26 01:29:55;;;;;;;17.42;12.07;;;;;;;19.08;100.00;98067.47;5059141;28;20056;-43
2023/07/26 01:32:22;;;;;;;20.63;12.10;;;;;;;18.95;100.00;98049.34;5062328;28;20514;-42
2023/07/26 01:34:48;;;;;;;20.33;12.50;;;;;;;19.06;100.00;98070.25;5032056;28;20547;-42
2023/07/26 01:37:14;;;;;;;21.02;12.20;;;;;;;18.93;100.00;98054.78;5066250;28;20051;-42
2023/07/26 01:39:40;;;;;;;17.25;11.25;;;;;;;19.08;100.00;98080.66;5067449;28;20051;-43
2023/07/26 01:42:06;;;;;;;17.08;12.05;;;;;;;19.00;100.00;98070.81;5030942;28;20041;-44
2023/07/26 01:44:36;;;;;;;18.65;12.75;;;;;;;18.99;100.00;98061.28;5047969;28;20044;-42
2023/07/26 01:47:02;;;;;;;20.65;11.98;;;;;;;19.05;100.00;98081.78;5066551;28;20515;-43
2023/07/26 01:49:29;;;;;;;17.88;12.05;;;;;;;19.01;100.00;98075.13;5068113;28;20040;-45
2023/07/26 01:51:55;;;;;;;18.25;12.10;;;;;;;19.02;100.00;98072.34;5061108;28;20090;-43
2023/07/26 01:54:21;;;;;;;22.27;12.32;;;;;;;19.03;100.00;98074.03;5068375;28;20036;-45
2023/07/26 01:56:47;;;;;;;19.70;12.30;;;;;;;19.03;100.00;98073.19;5066759;28;20067;-42
2023/07/26 01:59:13;;;;;;;19.98;12.13;;;;;;;19.06;100.00;98072.88;5065182;28;20040;-45
2023/07/26 02:01:39;;;;;;;24.00;12.80;;;;;;;19.08;100.00;98070.94;5066023;28;20044;-42
2023/07/26 02:04:05;;;;;;;21.88;12.02;;;;;;;19.09;100.00;98077.03;5049228;28;20040;-45
2023/07/26 02:06:31;;;;;;;16.08;10.70;;;;;;;19.12;100.00;98074.09;5084396;28;20063;-42
2023/07/26 02:08:57;;;;;;;20.60;11.93;;;;;;;19.08;100.00;98070.94;5067733;28;20508;-43
2023/07/26 02:11:23;;;;;;;22.65;12.15;;;;;;;19.14;100.00;98072.16;5067785;28;20569;-44
2023/07/26 02:13:49;;;;;;;17.75;12.68;;;;;;;19.15;100.00;98069.41;5069203;28;20036;-42
2023/07/26 02:16:15;;;;;;;17.25;11.55;;;;;;;19.11;100.00;98064.53;5068204;28;20074;-44
2023/07/26 02:18:41;;;;;;;16.98;11.48;;;;;;;19.17;100.00;98067.44;5063425;28;20028;-45
2023/07/26 02:21:07;;;;;;;17.98;11.43;;;;;;;19.01;100.00;98043.50;5067844;28;20500;-44
2023/07/26 02:23:32;;;;;;;18.15;11.55;;;;;;;19.07;100.00;98050.84;5066913;28;20040;-43
2023/07/26 02:25:58;;;;;;;19.27;11.63;;;;;;;19.23;100.00;98066.84;5066650;28;20044;-43
2023/07/26 02:28:24;;;;;;;16.25;12.05;;;;;;;19.24;100.00;98079.06;5067134;28;20044;-43
2023/07/26 02:30:50;;;;;;;19.20;11.77;;;;;;;19.23;100.00;98071.28;5065831;28;20048;-43
2023/07/26 02:33:16;;;;;;;19.23;12.60;;;;;;;19.26;100.00;98074.44;5050847;28;20462;-44
2023/07/26 02:35:42;;;;;;;20.67;11.55;;;;;;;19.29;100.00;98076.81;5035840;28;20045;-45
2023/07/26 02:38:09;;;;;;;16.83;11.80;;;;;;;19.32;100.00;98068.59;5059189;28;20080;-42
2023/07/26 02:40:36;;;;;;;19.00;12.18;;;;;;;19.37;100.00;98082.16;5049052;28;20068;-44
2023/07/26 02:43:02;;;;;;;15.50;11.57;;;;;;;19.38;100.00;98069.81;5050486;28;20435;-43
2023/07/26 02:45:28;;;;;;;15.77;11.20;;;;;;;19.38;100.00;98073.28;5068499;28;20043;-44
2023/07/26 02:47:54;;;;;;;14.10;10.90;;;;;;;19.38;100.00;98075.91;5050862;28;20048;-43
2023/07/26 02:50:20;;;;;;;16.42;11.60;;;;;;;19.39;100.00;98084.66;5065088;28;20131;-42
2023/07/26 02:52:46;;;;;;;17.88;11.15;;;;;;;19.37;100.00;98074.25;5068425;28;20036;-43
2023/07/26 02:55:12;;;;;;;18.08;12.00;;;;;;;19.42;100.00;98079.09;5067359;28;20120;-45
2023/07/26 02:57:38;;;;;;;15.50;10.93;;;;;;;19.44;100.00;98067.47;5065058;28;20060;-43
2023/07/26 03:00:05;;;;;;;16.00;10.50;;;;;;;19.30;100.00;98032.84;5068528;28;20508;-45
2023/07/26 03:02:31;;;;;;;15.68;11.02;;;;;;;19.55;100.00;98066.44;5067573;28;20093;-42
2023/07/26 03:04:57;;;;;;;16.65;11.18;;;;;;;19.58;100.00;98068.75;5068195;28;20048;-44
2023/07/26 03:07:23;;;;;;;16.85;10.98;;;;;;;19.60;100.00;98066.81;5065754;28;20543;-43
2023/07/26 03:09:49;;;;;;;17.05;10.70;;;;;;;19.70;100.00;98077.28;5067264;28;20083;-44
2023/07/26 03:12:15;;;;;;;15.77;10.23;;;;;;;19.71;100.00;98071.03;5067796;28;20558;-44
2023/07/26 03:14:40;;;;;;;16.55;10.88;;;;;;;19.79;100.00;98071.13;5068115;28;20042;-44
2023/07/26 03:17:08;;;;;;;15.40;10.73;;;;;;;19.85;100.00;98070.53;5057559;28;20036;-43
2023/07/26 03:19:34;;;;;;;16.88;10.95;;;;;;;19.87;100.00;98069.41;5088486;28;20150;-43
2023/07/26 03:22:00;;;;;;;14.93;10.15;;;;;;;19.86;100.00;98066.91;5071871;28;20568;-43
2023/07/26 03:24:26;;;;;;;15.77;9.98;;;;;;;19.96;100.00;98085.28;5074207;28;20135;-42
2023/07/26 03:26:52;;;;;;;16.50;10.35;;;;;;;19.73;100.00;98032.97;5074984;28;20050;-45
2023/07/26 03:29:20;;;;;;;20.65;10.27;;;;;;;20.00;100.00;98069.00;5073737;28;20036;-44
2023/07/26 03:31:46;;;;;;;13.43;9.93;;;;;;;20.05;100.00;98072.03;5056277;28;20093;-44
2023/07/26 03:34:12;;;;;;;15.45;10.10;;;;;;;20.06;100.00;98063.13;5073577;28;20588;-43
2023/07/26 03:36:38;;;;;;;15.70;10.18;;;;;;;20.10;100.00;98067.13;5071918;28;20071;-43
2023/07/26 03:39:04;;;;;;;17.92;10.02;;;;;;;20.12;100.00;98073.09;5073822;28;20043;-44
2023/07/26 03:41:29;;;;;;;14.48;9.73;;;;;;;20.15;100.00;98062.22;5072787;28;20044;-44
2023/07/26 03:43:56;;;;;;;14.75;10.90;;;;;;;20.15;100.00;98054.28;5072728;28;20115;-43
2023/07/26 03:46:22;;;;;;;13.15;9.80;;;;;;;20.09;100.00;98035.63;5056541;28;20043;-45
2023/07/26 03:48:48;;;;;;;17.15;9.25;;;;;;;20.27;100.00;98057.53;5070039;28;20033;-42
2023/07/26 03:51:14;;;;;;;12.57;10.07;;;;;;;20.35;100.00;98055.00;5078784;28;20063;-44
2023/07/26 03:53:40;;;;;;;12.48;9.55;;;;;;;20.37;100.00;98066.22;5072173;28;20032;-44
2023/07/26 03:56:06;;;;;;;12.55;9.65;;;;;;;20.13;100.00;98014.06;5073221;28;20063;-46
2023/07/26 03:58:32;;;;;;;12.05;9.50;;;;;;;20.47;100.00;98061.66;5072071;28;20152;-44
2023/07/26 04:00:58;;;;;;;15.02;10.15;;;;;;;20.55;100.00;98064.38;5074602;28;20551;-43
2023/07/26 04:03:24;;;;;;;13.15;9.15;;;;;;;20.39;100.00;98027.31;5071541;28;20552;-45
2023/07/26 04:05:50;;;;;;;15.05;9.45;;;;;;;20.64;100.00;98057.34;5072372;28;20040;-46
2023/07/26 04:08:16;;;;;;;12.73;9.60;;;;;;;20.69;100.00;98058.53;5070626;28;20036;-44
2023/07/26 04:10:42;;;;;;;13.95;9.43;;;;;;;20.58;99.47;98024.47;5072996;28;20048;-43
2023/07/26 04:13:08;;;;;;;10.73;8.52;;;;;;;20.80;98.82;98044.22;5055642;28;20043;-44
2023/07/26 04:15:34;;;;;;;15.00;9.35;;;;;;;20.87;98.00;98039.16;5072137;28;20614;-42
2023/07/26 04:18:00;;;;;;;15.27;9.27;;;;;;;20.94;97.20;98038.34;5072842;28;20048;-43
2023/07/26 04:20:26;;;;;;;13.75;10.00;;;;;;;20.98;96.64;98029.16;5053405;28;20041;-46
2023/07/26 04:22:52;;;;;;;12.73;9.32;;;;;;;20.88;95.98;98002.03;5043228;28;20047;-45
2023/07/26 04:25:17;;;;;;;15.73;9.98;;;;;;;21.09;95.54;98028.03;5067965;28;20465;-45
2023/07/26 04:27:44;;;;;;;15.00;9.43;;;;;;;21.18;95.05;98028.91;5051379;28;20052;-45
2023/07/26 04:30:10;;;;;;;15.05;9.80;;;;;;;21.26;94.67;98016.53;5050804;28;20045;-45
2023/07/26 04:32:36;;;;;;;12.55;9.52;;;;;;;21.35;94.05;98015.59;5060064;28;20127;-49
2023/07/26 04:35:02;;;;;;;14.02;9.48;;;;;;;21.38;93.19;98011.78;5068240;28;20032;-44
2023/07/26 04:37:29;;;;;;;11.85;9.20;;;;;;;21.14;92.59;97965.00;5056055;28;20052;-44
2023/07/26 04:39:55;;;;;;;12.70;8.98;;;;;;;21.54;91.91;98009.19;5069036;28;20097;-43
2023/07/26 04:42:21;;;;;;;12.27;9.20;;;;;;;21.68;91.24;98010.34;5069079;28;20411;-46
2023/07/26 04:44:47;;;;;;;12.00;8.27;;;;;;;21.59;90.77;97983.06;5069834;28;20508;-43
2023/07/26 04:47:15;;;;;;;12.68;8.32;;;;;;;21.81;89.69;97994.84;5068697;28;20071;-45
2023/07/26 04:49:42;;;;;;;11.10;7.95;;;;;;;21.62;88.81;97958.09;5084740;28;20060;-43
2023/07/26 04:52:08;;;;;;;12.43;8.27;;;;;;;21.93;88.16;97991.69;5052892;28;20041;-46
2023/07/26 04:54:34;;;;;;;12.98;8.35;;;;;;;22.07;87.35;97992.06;5069883;28;20500;-44
2023/07/26 04:56:59;;;;;;;12.38;8.10;;;;;;;22.17;86.51;97982.97;5069040;28;20062;-45
2023/07/26 04:59:26;;;;;;;16.25;8.73;;;;;;;22.28;85.43;97982.63;5070466;28;20040;-45
2023/07/26 05:01:51;;;;;;;12.20;7.53;;;;;;;22.38;84.46;97977.97;5068945;28;20040;-43
2023/07/26 05:04:17;;;;;;;9.48;7.70;;;;;;;22.52;83.47;97971.13;5034479;28;20039;-45
2023/07/26 05:06:43;;;;;;;15.38;7.55;;;;;;;22.71;82.00;97994.66;5066970;28;20055;-43
2023/07/26 05:09:09;;;;;;;11.23;7.47;;;;;;;22.70;80.76;97982.34;5050903;28;20041;-47
2023/07/26 05:11:35;;;;;;;14.40;8.10;;;;;;;22.85;80.44;97979.03;5069961;28;20455;-42
2023/07/26 05:14:01;;;;;;;12.23;7.78;;;;;;;22.93;79.66;97979.81;5051872;28;20373;-43
2023/07/26 05:16:27;;;;;;;16.48;7.85;;;;;;;22.99;79.29;97968.53;5065726;28;20231;-44
2023/07/26 05:18:57;;;;;;;12.43;6.90;;;;;;;23.13;78.85;97969.63;5056341;28;20040;-45
2023/07/26 05:21:24;;;;;;;11.20;7.50;;;;;;;23.30;78.27;97979.13;5039845;28;20131;-45
2023/07/26 05:23:50;;;;;;;11.02;8.40;;;;;;;23.14;76.92;97936.78;5062568;28;20556;-45
2023/07/26 05:26:16;;;;;;;10.35;7.90;;;;;;;23.35;76.42;97960.03;5068933;28;20040;-44
2023/07/26 05:28:41;;;;;;;9.23;6.97;;;;;;;23.44;75.62;97949.22;5068665;28;20063;-43
2023/07/26 05:31:07;;;;;;;12.35;7.47;;;;;;;23.35;74.96;97922.91;5068183;28;20115;-43
2023/07/26 05:33:33;;;;;;;10.57;7.30;;;;;;;23.59;74.94;97941.34;5048009;28;20048;-44
2023/07/26 05:35:59;;;;;;;10.63;7.38;;;;;;;23.74;74.98;97938.75;5058240;28;20036;-44
2023/07/26 05:38:25;;;;;;;10.93;7.55;;;;;;;23.87;74.60;97937.13;5055124;28;20036;-48
2023/07/26 05:40:51;;;;;;;9.85;7.97;;;;;;;23.99;74.70;97943.66;5067391;28;20032;-45
2023/07/26 05:43:18;;;;;;;12.32;7.70;;;;;;;23.95;74.10;97936.25;5069062;28;20048;-49
2023/07/26 05:45:44;;;;;;;10.85;7.78;;;;;;;24.20;73.85;97932.38;5050669;28;20090;-45
2023/07/26 05:48:10;;;;;;;13.13;8.43;;;;;;;24.36;72.59;97932.22;5048339;28;20044;-42
2023/07/26 05:50:36;;;;;;;10.02;7.20;;;;;;;24.43;71.73;97908.41;5049319;28;20425;-44
2023/07/26 05:53:02;;;;;;;10.30;7.57;;;;;;;24.76;70.93;97925.59;5064277;28;20067;-44
2023/07/26 05:55:28;;;;;;;11.57;8.15;;;;;;;24.81;69.73;97941.00;5047005;28;20512;-49
2023/07/26 05:57:54;;;;;;;10.60;7.88;;;;;;;24.60;69.63;97947.06;5055880;28;20047;-44
2023/07/26 06:00:20;;;;;;;12.85;7.32;;;;;;;24.49;69.83;97948.34;5066224;28;20107;-43
2023/07/26 06:02:46;;;;;;;12.93;7.78;;;;;;;24.58;69.51;97948.25;5050824;28;20131;-44
2023/07/26 06:05:12;;;;;;;12.48;8.40;;;;;;;24.58;69.49;97934.97;5069160;28;20505;-45
2023/07/26 06:07:38;;;;;;;11.13;8.85;;;;;;;24.61;69.26;97951.38;5067057;28;20040;-44
2023/07/26 06:10:04;;;;;;;11.25;7.70;;;;;;;24.62;69.19;97953.03;5068379;28;20043;-46
2023/07/26 06:12:30;;;;;;;14.95;8.07;;;;;;;24.75;68.92;97944.41;5064934;28;20512;-44
2023/07/26 06:14:56;;;;;;;12.70;8.43;;;;;;;24.94;68.27;97951.00;5068701;28;20055;-45
2023/07/26 06:17:22;;;;;;;15.32;8.30;;;;;;;24.94;67.99;97951.84;5065723;28;20127;-47
2023/07/26 06:19:48;;;;;;;14.32;8.23;;;;;;;25.05;67.37;97934.59;5058587;28;20052;-46
2023/07/26 06:22:14;;;;;;;11.60;8.18;;;;;;;25.12;67.11;97940.81;5051032;28;20055;-44
2023/07/26 06:24:40;;;;;;;15.05;9.07;;;;;;;25.09;66.46;97922.56;5066121;28;20404;-46
2023/07/26 06:27:06;;;;;;;13.35;8.73;;;;;;;25.29;66.22;97940.38;5067423;28;20048;-45
2023/07/26 06:29:33;;;;;;;14.63;8.93;;;;;;;25.54;65.95;97934.72;5046975;28;20467;-46
2023/07/26 06:31:59;;;;;;;13.75;8.50;;;;;;;25.82;64.86;97948.09;5048733;28;20041;-43
2023/07/26 06:34:25;;;;;;;11.38;7.68;;;;;;;26.15;64.15;97934.03;5064014;28;20126;-46
2023/07/26 06:36:50;;;;;;;9.23;7.60;;;;;;;26.69;62.43;97928.06;5052709;28;20122;-44
2023/07/26 06:39:16;;;;;;;12.13;8.43;;;;;;;26.91;61.04;97932.28;5062887;28;20546;-44
2023/07/26 06:41:42;;;;;;;12.57;7.80;;;;;;;27.21;59.97;97924.00;5049555;28;20045;-43
2023/07/26 06:44:08;;;;;;;11.15;8.32;;;;;;;27.44;59.33;97936.97;5050792;28;20080;-44
2023/07/26 06:46:34;;;;;;;15.85;8.52;;;;;;;27.32;58.69;97916.19;5050688;28;20037;-44
2023/07/26 06:49:01;;;;;;;15.75;8.35;;;;;;;27.07;58.72;97908.94;5066700;28;20105;-43
2023/07/26 06:51:27;;;;;;;16.00;8.65;;;;;;;26.69;59.88;97924.56;5059550;28;20044;-44
2023/07/26 06:53:53;;;;;;;15.50;8.68;;;;;;;26.81;60.20;97914.97;5055627;28;20855;-45
2023/07/26 06:56:19;;;;;;;15.38;9.18;;;;;;;27.24;59.46;97916.41;5067033;28;20052;-51
2023/07/26 06:58:45;;;;;;;19.35;9.38;;;;;;;27.19;58.84;97891.34;5068374;28;20098;-44
2023/07/26 07:01:17;;;;;;;19.80;9.40;;;;;;;27.35;58.39;97909.66;5068423;28;20040;-44
2023/07/26 07:03:43;;;;;;;12.18;8.32;;;;;;;27.01;58.56;97861.75;5049485;28;20471;-43
2023/07/26 07:06:09;;;;;;;11.30;7.63;;;;;;;27.56;58.22;97904.16;5064119;28;20037;-45
2023/07/26 07:08:36;;;;;;;12.18;8.00;;;;;;;27.83;57.55;97880.97;5065568;28;20559;-43
2023/07/26 07:11:02;;;;;;;12.00;8.07;;;;;;;28.39;56.85;97892.03;5064480;28;20044;-46
2023/07/26 07:13:28;;;;;;;12.40;8.43;;;;;;;28.47;55.95;97882.97;5076862;28;20408;-43
2023/07/26 07:15:53;;;;;;;13.60;7.88;;;;;;;28.76;55.78;97882.47;5068102;28;20058;-44
2023/07/26 07:18:19;;;;;;;10.38;7.35;;;;;;;29.24;54.50;97882.03;5064325;28;20040;-44
2023/07/26 07:20:45;;;;;;;14.90;8.10;;;;;;;29.45;53.81;97869.16;5061407;28;20033;-43
2023/07/26 07:23:11;;;;;;;11.82;8.43;;;;;;;29.73;53.55;97882.09;5066799;28;20503;-44
2023/07/26 07:25:40;;;;;;;11.88;7.90;;;;;;;29.54;53.04;97887.63;5066590;28;20539;-45
2023/07/26 07:28:06;;;;;;;11.20;7.95;;;;;;;29.32;53.43;97879.94;5067865;28;20036;-43
2023/07/26 07:30:32;;;;;;;13.30;7.60;;;;;;;29.41;52.51;97878.66;5064482;28;20078;-44
2023/07/26 07:32:58;;;;;;;10.90;7.75;;;;;;;29.23;52.55;97881.22;5065417;28;20498;-45
2023/07/26 07:35:24;;;;;;;10.52;7.75;;;;;;;28.80;52.99;97872.16;5065104;28;20530;-46
2023/07/26 07:37:50;;;;;;;13.18;7.88;;;;;;;28.56;53.49;97869.16;5069434;28;20040;-45
2023/07/26 07:40:16;;;;;;;18.15;8.25;;;;;;;28.48;53.77;97863.19;5068602;28;20461;-43
2023/07/26 07:42:42;;;;;;;13.50;7.57;;;;;;;28.73;53.57;97868.72;5060425;28;20482;-44
2023/07/26 07:45:08;;;;;;;17.05;7.75;;;;;;;29.25;52.62;97854.22;5059668;28;20037;-44
2023/07/26 07:47:34;;;;;;;15.73;8.15;;;;;;;29.54;51.84;97853.63;5065970;28;20471;-45
2023/07/26 07:50:00;;;;;;;12.13;8.07;;;;;;;29.24;52.12;97855.25;5071823;28;20033;-46
2023/07/26 07:52:26;;;;;;;10.80;7.95;;;;;;;28.80;52.98;97853.44;5065351;28;20068;-43
2023/07/26 07:54:51;;;;;;;12.60;7.57;;;;;;;28.96;53.22;97848.41;5067916;28;20036;-44
2023/07/26 07:57:18;;;;;;;10.70;7.53;;;;;;;28.87;53.48;97847.03;5067113;28;20056;-45
2023/07/26 07:59:44;;;;;;;13.13;7.72;;;;;;;29.01;52.86;97818.34;5057879;28;20086;-43
2023/07/26 08:02:09;;;;;;;15.20;8.80;;;;;;;29.34;52.34;97840.41;5065845;28;20040;-41
2023/07/26 08:04:39;;;;;;;13.15;7.63;;;;;;;29.54;52.02;97844.78;5065413;28;20577;-51
2023/07/26 08:07:05;;;;;;;18.00;8.57;;;;;;;29.37;51.70;97831.91;5069894;28;20048;-46
2023/07/26 08:09:31;;;;;;;12.77;7.95;;;;;;;29.22;52.31;97847.44;5052622;28;20040;-48
2023/07/26 08:11:57;;;;;;;12.50;7.70;;;;;;;29.02;52.50;97820.81;5051118;28;20071;-44
2023/07/26 08:14:23;;;;;;;11.63;7.68;;;;;;;29.12;52.88;97843.59;5066150;28;20470;-44
2023/07/26 08:16:49;;;;;;;15.43;7.90;;;;;;;29.05;53.28;97843.63;5069895;28;20056;-48
2023/07/26 08:19:15;;;;;;;13.30;8.57;;;;;;;29.36;52.73;97843.66;5069880;28;20045;-46
2023/07/26 08:21:41;;;;;;;11.50;7.53;;;;;;;29.23;52.42;97826.84;5069849;28;20085;-46
2023/07/26 08:24:07;;;;;;;15.00;8.77;;;;;;;29.24;53.01;97849.91;5053183;28;20530;-47
2023/07/26 08:26:32;;;;;;;11.32;8.60;;;;;;;28.87;53.61;97857.72;5070823;28;20036;-45
2023/07/26 08:28:58;;;;;;;15.75;8.35;;;;;;;28.11;54.75;97849.50;5054201;28;20045;-45
2023/07/26 08:31:24;;;;;;;13.07;8.45;;;;;;;27.74;55.99;97850.16;5069252;28;20044;-43
2023/07/26 08:33:50;;;;;;;13.82;8.13;;;;;;;27.52;56.60;97846.06;5070712;28;20127;-43
2023/07/26 08:36:16;;;;;;;15.30;7.93;;;;;;;27.18;57.17;97814.97;5070255;28;20045;-44
2023/07/26 08:38:42;;;;;;;14.32;8.52;;;;;;;27.21;57.89;97841.28;5070919;28;20040;-44
2023/07/26 08:41:08;;;;;;;13.82;8.35;;;;;;;26.84;58.71;97832.75;5080874;28;20051;-43
2023/07/26 08:43:39;;;;;;;16.30;8.07;;;;;;;26.64;59.61;97837.16;5090903;28;20036;-47
2023/07/26 08:46:09;;;;;;;21.52;9.38;;;;;;;26.27;62.40;97849.13;5090762;28;20538;-47
2023/07/26 08:48:37;;;;;;;19.95;11.23;;;;;;;24.76;89.70;97821.13;5072546;28;20055;-44
2023/07/26 08:51:05;;;;;;;19.83;11.38;;;;;;;24.07;98.45;97829.41;5077784;28;20047;-44
2023/07/26 08:53:31;;;;;;;25.07;15.10;;;;;;;23.45;100.00;97820.06;5032369;28;20127;-47
2023/07/26 08:55:57;;;;;;;19.52;13.23;;;;;;;23.26;100.00;97815.25;5059354;28;20074;-44
2023/07/26 08:58:23;;;;;;;22.35;13.60;;;;;;;22.84;100.00;97774.16;5070318;28;21321;-44
2023/07/26 09:00:49;;;;;;;21.63;13.57;;;;;;;22.80;100.00;97802.84;5066995;28;20052;-44
2023/07/26 09:03:16;;;;;;;23.92;11.68;;;;;;;22.76;100.00;97792.75;5051231;28;20036;-44
2023/07/26 09:05:42;;;;;;;20.45;14.05;;;;;;;22.58;100.00;97774.47;5066162;28;20039;-43
2023/07/26 09:08:08;;;;;;;21.35;14.70;;;;;;;22.59;100.00;97770.81;5065951;28;20085;-43
2023/07/26 09:10:37;;;;;;;22.08;13.30;;;;;;;22.58;100.00;97773.63;5066952;28;20117;-44
2023/07/26 09:13:11;;;;;;;18.85;12.60;;;;;;;22.54;100.00;97764.38;5045963;28;20044;-43
2023/07/26 09:15:38;;;;;;;16.77;12.48;;;;;;;22.48;100.00;97773.03;5066870;28;20036;-45
2023/07/26 09:18:05;;;;;;;15.77;13.15;;;;;;;22.53;100.00;97779.44;5066176;28;20427;-44
2023/07/26 09:20:31;;;;;;;21.95;13.93;;;;;;;22.45;100.00;97771.56;5059959;28;20048;-44
2023/07/26 09:23:04;;;;;;;21.08;13.68;;;;;;;22.44;100.00;97759.31;5047500;28;20059;-44
2023/07/26 09:25:35;;;;;;;17.88;12.15;;;;;;;22.57;100.00;97774.63;5044321;28;20533;-45
2023/07/26 09:28:02;;;;;;;16.90;12.23;;;;;;;22.47;100.00;97766.91;5061816;28;20484;-44
2023/07/26 09:30:28;;;;;;;16.20;10.50;;;;;;;22.46;100.00;97772.38;5060429;28;20882;-43
2023/07/26 09:32:58;;;;;;;19.42;11.10;;;;;;;22.23;100.00;97751.16;5067848;28;20409;-42
2023/07/26 09:35:24;;;;;;;18.48;10.93;;;;;;;22.41;100.00;97786.13;5059397;28;20116;-43
2023/07/26 09:37:50;;;;;;;18.02;11.98;;;;;;;22.42;100.00;97787.78;5045182;28;20484;-43
2023/07/26 09:40:16;;;;;;;19.70;12.13;;;;;;;22.36;100.00;97786.66;5058445;28;20090;-44
2023/07/26 09:42:46;;;;;;;17.40;11.80;;;;;;;22.41;100.00;97786.13;5045571;28;20040;-43
2023/07/26 09:45:19;;;;;;;15.60;10.55;;;;;;;22.08;100.00;97753.72;5056514;28;20041;-42
2023/07/26 09:47:46;;;;;;;18.33;11.48;;;;;;;22.18;100.00;97770.22;5056264;28;20045;-46
2023/07/26 09:50:29;;;;;;;17.02;11.40;;;;;;;22.06;100.00;97778.69;5076945;28;20048;-43
2023/07/26 09:52:56;;;;;;;18.60;11.40;;;;;;;21.89;100.00;97764.66;5059407;28;20106;-45
2023/07/26 09:55:27;;;;;;;18.08;12.05;;;;;;;21.91;100.00;97765.31;5060947;28;20116;-47
2023/07/26 09:57:54;;;;;;;14.80;11.77;;;;;;;21.84;100.00;97751.09;5060481;28;20041;-45
2023/07/26 10:00:26;;;;;;;16.65;11.60;;;;;;;21.92;100.00;97764.31;5070740;28;20465;-43
2023/07/26 10:02:56;;;;;;;20.52;13.82;;;;;;;22.04;100.00;97768.25;5057757;28;20128;-44
2023/07/26 10:05:23;;;;;;;16.63;11.20;;;;;;;21.86;100.00;97751.78;5058086;28;20041;-45
2023/07/26 10:07:50;;;;;;;14.90;10.65;;;;;;;21.86;100.00;97778.22;5042586;28;20672;-44
2023/07/26 10:10:17;;;;;;;18.23;11.32;;;;;;;21.97;100.00;97788.47;5053514;28;20901;-44
2023/07/26 10:12:45;;;;;;;19.05;12.13;;;;;;;22.03;100.00;97782.50;5055259;28;20041;-45
2023/07/26 10:15:12;;;;;;;15.82;11.45;;;;;;;22.12;100.00;97785.94;5030863;28;20508;-43
2023/07/26 10:17:43;;;;;;;16.55;11.15;;;;;;;22.17;100.00;97789.72;5059916;28;20055;-44
2023/07/26 10:20:09;;;;;;;15.80;9.98;;;;;;;22.24;100.00;97795.16;5054749;28;20085;-43
2023/07/26 10:22:38;;;;;;;17.08;10.80;;;;;;;22.21;100.00;97800.78;5046741;28;20047;-43
2023/07/26 10:25:04;;;;;;;19.80;11.65;;;;;;;22.20;100.00;97801.78;5045565;28;20046;-46
2023/07/26 10:27:30;;;;;;;17.35;11.60;;;;;;;22.20;100.00;97810.53;5066263;28;20040;-43
2023/07/26 10:29:56;;;;;;;20.48;12.35;;;;;;;22.05;100.00;97788.44;5062257;28;20040;-47
2023/07/26 10:32:22;;;;;;;20.55;12.55;;;;;;;22.12;100.00;97821.19;5063658;28;20101;-42
2023/07/26 10:34:58;;;;;;;19.40;13.93;;;;;;;22.02;100.00;97831.13;5062525;28;20051;-43
2023/07/26 10:37:31;;;;;;;20.45;14.40;;;;;;;21.98;100.00;97827.19;5063034;28;20487;-44
2023/07/26 10:39:57;;;;;;;23.00;14.02;;;;;;;21.86;100.00;97820.56;5044085;28;20028;-46
2023/07/26 10:42:25;;;;;;;22.85;14.48;;;;;;;21.76;100.00;97830.50;5061071;28;20409;-42
2023/07/26 10:44:55;;;;;;;20.77;14.97;;;;;;;21.69;100.00;97821.56;5058205;28;20049;-44
2023/07/26 10:47:21;;;;;;;28.20;17.10;;;;;;;21.63;100.00;97793.16;5064136;28;20493;-42
2023/07/26 10:49:47;;;;;;;23.20;17.60;;;;;;;21.58;100.00;97755.81;5061611;28;20055;-42
2023/07/26 10:52:14;;;;;;;36.78;22.17;;;;;;;21.59;100.00;97733.66;5064265;28;20044;-43
2023/07/26 10:54:51;;;;;;;27.02;18.42;;;;;;;21.42;100.00;97706.44;5063083;28;20424;-42
2023/07/26 10:57:30;;;;;;;31.75;19.38;;;;;;;21.48;100.00;97734.84;5053056;28;20604;-43
2023/07/26 11:00:11;;;;;;;30.40;19.95;;;;;;;21.45;100.00;97741.31;5067526;28;20032;-43
2023/07/26 11:03:06;;;;;;;33.00;21.42;;;;;;;21.39;100.00;97718.19;5063337;28;20529;-40
2023/07/26 11:05:32;;;;;;;35.70;23.58;;;;;;;21.49;100.00;97723.28;5051500;28;20504;-43
2023/07/26 11:08:08;;;;;;;34.22;22.90;;;;;;;21.53;100.00;97717.47;5065015;28;20093;-43
2023/07/26 11:10:35;;;;;;;38.45;24.40;;;;;;;21.55;100.00;97712.03;5060653;28;20090;-44
2023/07/26 11:13:05;;;;;;;44.97;25.75;;;;;;;21.58;100.00;97732.84;5061656;28;20040;-47
2023/07/26 11:15:32;;;;;;;44.80;25.63;;;;;;;21.58;100.00;97726.72;5066336;28;20045;-49